Time;durP1;ratioP1;P1;durP2;ratioP2;P2;SDS_P1;SDS_P2;PMS_P1;PMS_P2;Temp;Humidity;BMP_temperature;BMP_pressure;BME280_temperature;BME280_humidity;BME280_pressure;Samples;Min_cycle;Max_cycle;Signal;HPM_P1;HPM_P2
2022/06/07 00:02:19;;;;;;;1.70;1.60;;;;;;;;;;5092797;28;20263;-63
2022/06/07 00:04:47;;;;;;;1.83;1.63;;;;;;;;;;5092249;28;20263;-63
2022/06/07 00:07:15;;;;;;;1.80;1.70;;;;;;;;;;5093064;28;20230;-63
2022/06/07 00:09:43;;;;;;;1.63;1.53;;;;;;;;;;5096225;28;20233;-63
2022/06/07 00:12:12;;;;;;;3.13;2.10;;;;;;;;;;5094585;28;20696;-63
2022/06/07 00:14:41;;;;;;;2.33;2.13;;;;;;;;;;5100618;28;20751;-63
2022/06/07 00:17:11;;;;;;;1.87;1.50;;;;;;;;;;5096362;28;20271;-63
2022/06/07 00:19:40;;;;;;;2.03;1.77;;;;;;;;;;5097913;28;20206;-63
2022/06/07 00:22:08;;;;;;;3.43;1.63;;;;;;;;;;5094520;28;20229;-63
2022/06/07 00:24:36;;;;;;;2.33;1.67;;;;;;;;;;5100414;28;20708;-63
2022/06/07 00:27:05;;;;;;;2.70;1.60;;;;;;;;;;5094094;28;20233;-63
2022/06/07 00:29:33;;;;;;;1.83;1.70;;;;;;;;;;5100027;28;20227;-63
2022/06/07 00:32:04;;;;;;;1.50;1.50;;;;;;;;;;5094156;28;20655;-63
2022/06/07 00:34:32;;;;;;;2.00;1.90;;;;;;;;;;5100469;28;20224;-63
2022/06/07 00:37:00;;;;;;;2.03;1.80;;;;;;;;;;5094054;28;20258;-63
2022/06/07 00:39:28;;;;;;;1.67;1.50;;;;;;;;;;5092147;28;20214;-63
2022/06/07 00:41:56;;;;;;;1.97;1.73;;;;;;;;;;5095028;28;20681;-63
2022/06/07 00:44:31;;;;;;;2.03;1.90;;;;;;;;;;5091281;28;20282;-63
2022/06/07 00:47:01;;;;;;;2.30;1.90;;;;;;;;;;5095765;28;20262;-63
2022/06/07 00:49:32;;;;;;;1.73;1.63;;;;;;;;;;5097376;28;20251;-63
2022/06/07 00:52:00;;;;;;;2.87;1.47;;;;;;;;;;5096726;28;20225;-63
2022/06/07 00:54:29;;;;;;;2.43;1.90;;;;;;;;;;5098741;28;20197;-63
2022/06/07 00:56:57;;;;;;;1.90;1.60;;;;;;;;;;5098054;28;20226;-63
2022/06/07 00:59:31;;;;;;;2.67;1.60;;;;;;;;;;5091420;28;20212;-63
2022/06/07 01:01:59;;;;;;;3.60;1.80;;;;;;;;;;5097881;28;20209;-63
2022/06/07 01:04:27;;;;;;;2.00;1.80;;;;;;;;;;5092060;28;20308;-63
2022/06/07 01:12:29;;;;;;;2.20;1.63;;;;;;;;;;5094085;28;20250;-63
2022/06/07 01:14:57;;;;;;;1.87;1.77;;;;;;;;;;5098643;28;20221;-63
2022/06/07 01:17:25;;;;;;;3.63;2.00;;;;;;;;;;5092926;28;20263;-63
2022/06/07 01:19:53;;;;;;;1.70;1.60;;;;;;;;;;5098274;28;20202;-63
2022/06/07 01:22:22;;;;;;;1.70;1.60;;;;;;;;;;5093483;28;20198;-63
2022/06/07 01:24:52;;;;;;;2.63;1.77;;;;;;;;;;5099512;28;20256;-63
2022/06/07 01:27:20;;;;;;;1.70;1.60;;;;;;;;;;5092734;28;20264;-62
2022/06/07 01:29:48;;;;;;;3.60;1.80;;;;;;;;;;5099368;28;20256;-62
2022/06/07 01:32:16;;;;;;;2.03;1.90;;;;;;;;;;5092919;28;20264;-62
2022/06/07 01:34:44;;;;;;;2.87;1.77;;;;;;;;;;5099641;28;20236;-62
2022/06/07 01:37:13;;;;;;;3.20;2.00;;;;;;;;;;5092695;28;20222;-62
2022/06/07 01:42:27;;;;;;;2.30;1.60;;;;;;;;;;5093365;28;20635;-63
2022/06/07 01:44:56;;;;;;;2.50;1.60;;;;;;;;;;5095219;28;20272;-63
2022/06/07 01:47:25;;;;;;;1.80;1.70;;;;;;;;;;5094456;28;20221;-63
2022/06/07 01:49:53;;;;;;;2.13;1.93;;;;;;;;;;5096412;28;20568;-63
2022/06/07 01:52:23;;;;;;;3.40;2.50;;;;;;;;;;5095953;28;20220;-63
2022/06/07 01:54:53;;;;;;;2.17;2.03;;;;;;;;;;5097582;28;20240;-64
2022/06/07 01:57:22;;;;;;;5.03;2.60;;;;;;;;;;5093766;28;20268;-64
2022/06/07 01:59:50;;;;;;;2.50;1.70;;;;;;;;;;5093525;28;20205;-64
2022/06/07 02:02:18;;;;;;;3.30;1.70;;;;;;;;;;5094118;28;20255;-63
2022/06/07 02:04:46;;;;;;;6.30;1.67;;;;;;;;;;5093474;28;20312;-64
2022/06/07 02:07:15;;;;;;;4.93;2.00;;;;;;;;;;5094801;28;20221;-64
2022/06/07 02:09:43;;;;;;;2.20;1.80;;;;;;;;;;5094013;28;20304;-64
2022/06/07 02:12:13;;;;;;;1.90;1.80;;;;;;;;;;5093344;28;20198;-64
2022/06/07 02:14:41;;;;;;;3.30;2.00;;;;;;;;;;5098368;28;20206;-64
2022/06/07 02:17:09;;;;;;;3.37;2.33;;;;;;;;;;5092284;28;20280;-64
2022/06/07 02:19:37;;;;;;;1.87;1.77;;;;;;;;;;5098583;28;20241;-64
2022/06/07 02:22:05;;;;;;;2.63;2.03;;;;;;;;;;5092184;28;20205;-64
2022/06/07 02:24:33;;;;;;;2.33;1.97;;;;;;;;;;5098505;28;20257;-64
2022/06/07 02:27:04;;;;;;;2.73;2.10;;;;;;;;;;5091823;28;20226;-63
2022/06/07 02:29:36;;;;;;;2.37;1.90;;;;;;;;;;5098253;28;20197;-63
2022/06/07 02:32:06;;;;;;;2.00;1.90;;;;;;;;;;5091262;28;20226;-63
2022/06/07 02:34:37;;;;;;;1.80;1.70;;;;;;;;;;5098485;28;20229;-63
2022/06/07 02:37:06;;;;;;;2.30;2.10;;;;;;;;;;5091839;28;20272;-63
2022/06/07 02:39:36;;;;;;;2.33;1.93;;;;;;;;;;5098460;28;20205;-63
2022/06/07 02:42:05;;;;;;;4.07;2.00;;;;;;;;;;5092357;28;20630;-63
2022/06/07 02:44:35;;;;;;;2.83;2.50;;;;;;;;;;5094075;28;20251;-63
2022/06/07 02:47:03;;;;;;;1.83;1.70;;;;;;;;;;5093577;28;20225;-63
2022/06/07 02:49:31;;;;;;;7.40;2.00;;;;;;;;;;5095212;28;20569;-63
2022/06/07 02:51:59;;;;;;;2.77;2.30;;;;;;;;;;5094644;28;20209;-62
2022/06/07 02:54:36;;;;;;;1.63;1.53;;;;;;;;;;5088877;28;20205;-63
2022/06/07 02:57:04;;;;;;;2.67;2.00;;;;;;;;;;5095083;28;20266;-63
2022/06/07 02:59:32;;;;;;;2.03;1.93;;;;;;;;;;5097301;28;20206;-63
2022/06/07 03:02:02;;;;;;;4.23;1.77;;;;;;;;;;5096004;28;20239;-63
2022/06/07 03:04:30;;;;;;;1.90;1.80;;;;;;;;;;5089645;28;20233;-63
2022/06/07 03:06:59;;;;;;;2.73;2.10;;;;;;;;;;5096077;28;20252;-63
2022/06/07 03:09:27;;;;;;;5.57;2.30;;;;;;;;;;5090024;28;20260;-63
2022/06/07 03:11:56;;;;;;;3.03;1.83;;;;;;;;;;5092452;28;20609;-62
2022/06/07 03:14:24;;;;;;;3.23;1.90;;;;;;;;;;5097167;28;20259;-62
2022/06/07 03:16:56;;;;;;;1.90;1.80;;;;;;;;;;5092172;28;20218;-63
2022/06/07 03:19:28;;;;;;;4.27;1.97;;;;;;;;;;5096483;28;20202;-63
2022/06/07 03:21:56;;;;;;;2.30;2.10;;;;;;;;;;5092169;28;20206;-62
2022/06/07 03:24:25;;;;;;;4.93;2.27;;;;;;;;;;5096601;28;20619;-62
2022/06/07 03:26:53;;;;;;;3.27;2.00;;;;;;;;;;5092346;28;20238;-63
2022/06/07 03:29:22;;;;;;;2.67;1.73;;;;;;;;;;5095964;28;20695;-63
2022/06/07 03:31:50;;;;;;;2.00;1.90;;;;;;;;;;5086549;28;20233;-63
2022/06/07 03:34:18;;;;;;;2.00;1.90;;;;;;;;;;5096291;28;20231;-63
2022/06/07 03:36:47;;;;;;;3.97;1.90;;;;;;;;;;5097183;28;20216;-63
2022/06/07 03:39:15;;;;;;;3.03;2.00;;;;;;;;;;5097748;28;20232;-63
2022/06/07 03:41:43;;;;;;;3.03;2.30;;;;;;;;;;5097174;28;20201;-62
2022/06/07 03:44:12;;;;;;;2.10;1.90;;;;;;;;;;5100986;28;20209;-63
2022/06/07 03:46:42;;;;;;;4.07;2.27;;;;;;;;;;5101335;28;20298;-63
2022/06/07 03:49:10;;;;;;;3.00;2.63;;;;;;;;;;5101312;28;20216;-62
2022/06/07 03:51:38;;;;;;;3.13;2.03;;;;;;;;;;5101341;28;20209;-62
2022/06/07 03:54:08;;;;;;;3.80;1.80;;;;;;;;;;5101405;28;20255;-62
2022/06/07 03:56:36;;;;;;;3.40;2.00;;;;;;;;;;5101220;28;20699;-62
2022/06/07 03:59:04;;;;;;;2.93;2.10;;;;;;;;;;5100974;28;20587;-63
2022/06/07 04:01:32;;;;;;;2.20;2.10;;;;;;;;;;5101493;28;20205;-63
2022/06/07 04:04:01;;;;;;;2.97;1.90;;;;;;;;;;5101494;28;20227;-63
2022/06/07 04:06:31;;;;;;;4.20;2.03;;;;;;;;;;5101172;28;20229;-63
2022/06/07 04:08:59;;;;;;;6.00;2.20;;;;;;;;;;5101002;28;20575;-63
2022/06/07 04:11:29;;;;;;;4.37;2.00;;;;;;;;;;5101125;28;20212;-63
2022/06/07 04:13:57;;;;;;;3.87;2.23;;;;;;;;;;5100516;28;20583;-63
2022/06/07 04:16:26;;;;;;;2.80;1.97;;;;;;;;;;5100829;28;20233;-62
2022/06/07 04:18:54;;;;;;;2.63;2.43;;;;;;;;;;5100869;28;20209;-62
2022/06/07 04:21:23;;;;;;;2.43;1.90;;;;;;;;;;5100557;28;20229;-62
2022/06/07 04:23:51;;;;;;;3.60;2.10;;;;;;;;;;5100617;28;20255;-64
2022/06/07 04:26:23;;;;;;;2.20;2.10;;;;;;;;;;5100273;28;20308;-62
2022/06/07 04:28:52;;;;;;;3.47;1.87;;;;;;;;;;5099990;28;20255;-62
2022/06/07 04:31:21;;;;;;;3.43;2.33;;;;;;;;;;5097593;28;20230;-63
2022/06/07 04:33:50;;;;;;;2.20;1.70;;;;;;;;;;5100468;28;20289;-63
2022/06/07 04:36:20;;;;;;;3.20;1.73;;;;;;;;;;5097823;28;20214;-64
2022/06/07 04:38:49;;;;;;;4.37;2.53;;;;;;;;;;5100304;28;20197;-62
2022/06/07 04:41:18;;;;;;;2.90;2.00;;;;;;;;;;5097802;28;20197;-63
2022/06/07 04:43:48;;;;;;;2.70;2.33;;;;;;;;;;5099552;28;20201;-62
2022/06/07 04:46:18;;;;;;;5.47;2.30;;;;;;;;;;5097126;28;20233;-63
2022/06/07 04:48:47;;;;;;;6.13;3.27;;;;;;;;;;5099686;28;20652;-62
2022/06/07 04:51:16;;;;;;;8.00;3.90;;;;;;;;;;5100051;28;20255;-62
2022/06/07 04:53:46;;;;;;;6.43;3.60;;;;;;;;;;5096579;28;20576;-62
2022/06/07 04:56:16;;;;;;;3.97;3.13;;;;;;;;;;5098302;28;20305;-62
2022/06/07 04:58:44;;;;;;;3.17;2.87;;;;;;;;;;5098757;28;20220;-62
2022/06/07 05:01:15;;;;;;;3.30;2.50;;;;;;;;;;5099295;28;20597;-63
2022/06/07 05:03:45;;;;;;;2.60;2.40;;;;;;;;;;5098941;28;20205;-63
2022/06/07 05:06:20;;;;;;;3.50;2.60;;;;;;;;;;5098880;28;20233;-62
2022/06/07 05:08:48;;;;;;;7.10;3.10;;;;;;;;;;5098887;28;20197;-62
2022/06/07 05:11:16;;;;;;;7.43;4.63;;;;;;;;;;5096117;28;20201;-63
2022/06/07 05:13:45;;;;;;;9.63;5.10;;;;;;;;;;5098351;28;20287;-62
2022/06/07 05:16:14;;;;;;;6.33;4.10;;;;;;;;;;5098469;28;20217;-63
2022/06/07 05:18:42;;;;;;;7.07;3.87;;;;;;;;;;5098452;28;20205;-64
2022/06/07 05:21:12;;;;;;;7.30;3.20;;;;;;;;;;5098775;28;20201;-64
2022/06/07 05:23:41;;;;;;;4.13;3.43;;;;;;;;;;5098332;28;20288;-64
2022/06/07 05:26:11;;;;;;;5.23;3.30;;;;;;;;;;5097695;28;20244;-63
2022/06/07 05:28:41;;;;;;;5.20;3.17;;;;;;;;;;5097804;28;20198;-63
2022/06/07 05:31:09;;;;;;;5.43;2.70;;;;;;;;;;5095775;28;20228;-63
2022/06/07 05:33:37;;;;;;;3.90;2.30;;;;;;;;;;5095602;28;20205;-63
2022/06/07 05:36:06;;;;;;;4.27;2.70;;;;;;;;;;5097758;28;20704;-63
2022/06/07 05:38:36;;;;;;;3.40;3.10;;;;;;;;;;5097956;28;20223;-63
2022/06/07 05:41:05;;;;;;;7.20;3.00;;;;;;;;;;5097889;28;20251;-63
2022/06/07 05:43:33;;;;;;;5.43;3.23;;;;;;;;;;5097421;28;20212;-63
2022/06/07 05:46:01;;;;;;;6.37;3.60;;;;;;;;;;5097726;28;20227;-63
2022/06/07 05:48:33;;;;;;;6.70;3.23;;;;;;;;;;5097662;28;20197;-63
2022/06/07 05:51:01;;;;;;;6.47;2.80;;;;;;;;;;5097729;28;20205;-64
2022/06/07 05:53:29;;;;;;;5.80;3.40;;;;;;;;;;5097387;28;20201;-63
2022/06/07 05:56:04;;;;;;;4.43;3.33;;;;;;;;;;5099058;28;20225;-64
2022/06/07 05:58:32;;;;;;;5.87;3.77;;;;;;;;;;5097002;28;20201;-64
2022/06/07 06:01:02;;;;;;;5.40;3.00;;;;;;;;;;5097165;28;20204;-64
2022/06/07 06:03:30;;;;;;;4.47;3.60;;;;;;;;;;5098352;28;20254;-63
2022/06/07 06:05:58;;;;;;;5.63;3.43;;;;;;;;;;5097539;28;20206;-63
2022/06/07 06:11:15;;;;;;;4.67;2.50;;;;;;;;;;5097245;28;20254;-63
2022/06/07 06:13:43;;;;;;;2.77;2.50;;;;;;;;;;5095753;28;20247;-64
2022/06/07 06:16:15;;;;;;;4.97;2.83;;;;;;;;;;5097198;28;20300;-66
2022/06/07 06:18:43;;;;;;;3.13;2.00;;;;;;;;;;5098497;28;20288;-68
2022/06/07 06:21:11;;;;;;;2.00;1.80;;;;;;;;;;5097932;28;20654;-70
2022/06/07 06:24:03;;;;;;;4.60;2.00;;;;;;;;;;5098294;28;20663;-65
2022/06/07 06:26:33;;;;;;;4.17;2.90;;;;;;;;;;5090762;28;20236;-64
2022/06/07 06:29:01;;;;;;;8.80;5.20;;;;;;;;;;5094039;28;20199;-65
2022/06/07 06:31:29;;;;;;;4.03;2.63;;;;;;;;;;5097885;28;20234;-63
2022/06/07 06:33:57;;;;;;;4.07;2.93;;;;;;;;;;5098118;28;20208;-62
2022/06/07 06:36:27;;;;;;;2.97;2.43;;;;;;;;;;5096894;28;20220;-62
2022/06/07 06:38:56;;;;;;;3.87;2.73;;;;;;;;;;5097611;28;20224;-62
2022/06/07 06:41:25;;;;;;;5.57;3.10;;;;;;;;;;5097870;28;20651;-63
2022/06/07 06:43:55;;;;;;;3.20;2.43;;;;;;;;;;5096861;28;20221;-63
2022/06/07 06:46:24;;;;;;;4.33;2.77;;;;;;;;;;5094036;28;20250;-63
2022/06/07 06:48:52;;;;;;;4.70;2.53;;;;;;;;;;5096462;28;20657;-63
2022/06/07 06:51:21;;;;;;;3.73;2.60;;;;;;;;;;5096377;28;20567;-62
2022/06/07 06:53:50;;;;;;;3.30;2.93;;;;;;;;;;5097598;28;20242;-63
2022/06/07 06:56:20;;;;;;;2.63;2.43;;;;;;;;;;5097630;28;20300;-63
2022/06/07 06:58:48;;;;;;;3.73;2.53;;;;;;;;;;5097393;28;20240;-62
2022/06/07 07:01:18;;;;;;;3.50;2.83;;;;;;;;;;5097734;28;20208;-65
2022/06/07 07:03:46;;;;;;;3.67;2.73;;;;;;;;;;5084389;28;20205;-63
2022/06/07 07:06:19;;;;;;;5.43;3.13;;;;;;;;;;5096340;28;20301;-63
2022/06/07 07:08:48;;;;;;;3.60;3.10;;;;;;;;;;5097024;28;20203;-62
2022/06/07 07:11:17;;;;;;;3.80;3.40;;;;;;;;;;5094945;28;20238;-65
2022/06/07 07:13:46;;;;;;;3.67;3.37;;;;;;;;;;5097023;28;20193;-66
2022/06/07 07:16:16;;;;;;;5.67;3.30;;;;;;;;;;5097180;28;20703;-67
2022/06/07 07:18:46;;;;;;;7.90;3.17;;;;;;;;;;5097168;28;20228;-69
2022/06/07 07:21:15;;;;;;;4.70;3.30;;;;;;;;;;5097784;28;20208;-70
2022/06/07 07:23:43;;;;;;;3.13;2.83;;;;;;;;;;5096706;28;20240;-71
2022/06/07 07:26:13;;;;;;;3.93;3.10;;;;;;;;;;5091681;28;20218;-71
2022/06/07 07:28:42;;;;;;;4.37;3.40;;;;;;;;;;5095501;28;20217;-70
2022/06/07 07:31:11;;;;;;;3.37;2.80;;;;;;;;;;5093403;28;20229;-70
2022/06/07 07:33:40;;;;;;;3.33;3.07;;;;;;;;;;5097603;28;20205;-73
2022/06/07 07:36:10;;;;;;;5.43;2.40;;;;;;;;;;5097530;28;20223;-72
2022/06/07 07:38:39;;;;;;;2.93;2.63;;;;;;;;;;5097183;28;20711;-74
2022/06/07 07:41:15;;;;;;;3.13;2.67;;;;;;;;;;5097226;28;20230;-72
2022/06/07 07:43:44;;;;;;;7.87;3.13;;;;;;;;;;5095113;28;20240;-72
2022/06/07 07:46:14;;;;;;;3.20;2.50;;;;;;;;;;5096361;28;20253;-72
2022/06/07 07:48:42;;;;;;;3.70;2.77;;;;;;;;;;5095743;28;20227;-72
2022/06/07 07:51:19;;;;;;;6.07;3.00;;;;;;;;;;5088768;28;20209;-72
2022/06/07 07:53:51;;;;;;;3.67;2.70;;;;;;;;;;5092058;28;20287;-72
2022/06/07 07:56:19;;;;;;;3.13;2.17;;;;;;;;;;5095553;28;20222;-72
2022/06/07 07:58:54;;;;;;;2.23;2.00;;;;;;;;;;5096419;28;20223;-73
2022/06/07 08:01:23;;;;;;;2.50;2.30;;;;;;;;;;5096789;28;20194;-72
2022/06/07 08:03:52;;;;;;;2.83;1.97;;;;;;;;;;5091602;28;20202;-71
2022/06/07 08:06:23;;;;;;;3.20;1.93;;;;;;;;;;5093375;28;20232;-71
2022/06/07 08:08:53;;;;;;;2.07;1.83;;;;;;;;;;5095028;28;20347;-71
2022/06/07 08:11:22;;;;;;;4.17;2.10;;;;;;;;;;5094712;28;20205;-71
2022/06/07 08:13:51;;;;;;;3.20;1.80;;;;;;;;;;5095807;28;20204;-74
2022/06/07 08:16:19;;;;;;;1.83;1.67;;;;;;;;;;5095232;28;20222;-71
2022/06/07 08:18:48;;;;;;;2.27;1.80;;;;;;;;;;5094684;28;20205;-72
2022/06/07 08:21:17;;;;;;;6.07;2.40;;;;;;;;;;5094416;28;20195;-73
2022/06/07 08:23:46;;;;;;;1.80;1.70;;;;;;;;;;5096029;28;20278;-70
2022/06/07 08:26:16;;;;;;;4.10;1.97;;;;;;;;;;5096856;28;20226;-70
2022/06/07 08:28:44;;;;;;;1.90;1.80;;;;;;;;;;5097669;28;20598;-71
2022/06/07 08:31:13;;;;;;;1.80;1.47;;;;;;;;;;5100702;28;20271;-71
2022/06/07 08:39:53;;;;;;;1.83;1.57;;;;;;;;;;5086765;28;20252;-74
2022/06/07 08:45:45;;;;;;;4.83;2.00;;;;;;;;;;5088842;28;20633;-77
2022/06/07 08:48:15;;;;;;;1.67;1.50;;;;;;;;;;5096829;28;20666;-81
2022/06/07 08:50:44;;;;;;;2.50;1.77;;;;;;;;;;5093057;28;20206;-70
2022/06/07 08:53:13;;;;;;;3.03;1.73;;;;;;;;;;5099956;28;20240;-71
2022/06/07 08:55:45;;;;;;;3.13;2.23;;;;;;;;;;5092998;28;20680;-72
2022/06/07 08:58:16;;;;;;;3.07;1.57;;;;;;;;;;5091796;28;20598;-72
2022/06/07 09:00:46;;;;;;;2.20;1.53;;;;;;;;;;5092151;28;20244;-72
2022/06/07 09:03:31;;;;;;;2.87;1.30;;;;;;;;;;5082854;28;20255;-71
2022/06/07 09:06:17;;;;;;;3.10;1.60;;;;;;;;;;5098073;28;20227;-72
2022/06/07 09:08:46;;;;;;;3.40;1.30;;;;;;;;;;5099076;28;20231;-73
2022/06/07 09:14:05;;;;;;;2.97;1.80;;;;;;;;;;5096404;28;20241;-75
2022/06/07 09:16:53;;;;;;;4.93;1.30;;;;;;;;;;5097639;28;20227;-76
2022/06/07 09:19:36;;;;;;;4.53;1.40;;;;;;;;;;5089373;28;20563;-78
2022/06/07 09:22:29;;;;;;;2.47;1.43;;;;;;;;;;5097605;28;20206;-76
2022/06/07 09:25:03;;;;;;;5.90;1.60;;;;;;;;;;5098568;28;20208;-71
2022/06/07 09:27:34;;;;;;;4.63;1.60;;;;;;;;;;5098552;28;20786;-65
2022/06/07 09:30:10;;;;;;;1.60;1.50;;;;;;;;;;5094632;28;20290;-63
2022/06/07 09:32:40;;;;;;;1.57;1.33;;;;;;;;;;5096855;28;20314;-64
2022/06/07 09:35:10;;;;;;;1.53;1.43;;;;;;;;;;5096556;28;20200;-63
2022/06/07 09:37:41;;;;;;;1.20;1.20;;;;;;;;;;5096119;28;20254;-63
2022/06/07 09:40:21;;;;;;;1.13;1.13;;;;;;;;;;5098484;28;20710;-64
2022/06/07 09:42:53;;;;;;;3.13;1.37;;;;;;;;;;5093133;28;20212;-63
2022/06/07 09:45:24;;;;;;;1.57;1.03;;;;;;;;;;5097757;28;20233;-68
2022/06/07 09:51:21;;;;;;;0.90;0.90;;;;;;;;;;5085438;28;20189;-65
2022/06/07 09:53:59;;;;;;;3.20;1.83;;;;;;;;;;5091146;28;20209;-64
2022/06/07 09:56:32;;;;;;;1.13;1.10;;;;;;;;;;5088218;28;20258;-65
2022/06/07 09:59:20;;;;;;;2.63;1.37;;;;;;;;;;5098190;28;20201;-64
2022/06/07 10:01:52;;;;;;;1.77;0.97;;;;;;;;;;5096127;28;20210;-64
2022/06/07 10:04:23;;;;;;;0.93;0.93;;;;;;;;;;5098555;28;20207;-64
2022/06/07 10:06:54;;;;;;;1.90;0.90;;;;;;;;;;5090840;28;20736;-64
2022/06/07 10:09:26;;;;;;;1.70;1.33;;;;;;;;;;5079949;28;20232;-64
2022/06/07 10:11:58;;;;;;;2.63;0.90;;;;;;;;;;5088096;28;20263;-64
2022/06/07 10:14:33;;;;;;;0.80;0.80;;;;;;;;;;5085120;28;20200;-65
2022/06/07 10:17:25;;;;;;;0.60;0.60;;;;;;;;;;5098320;28;20729;-65
2022/06/07 10:19:55;;;;;;;0.97;0.87;;;;;;;;;;5086901;28;20234;-64
2022/06/07 10:22:34;;;;;;;1.60;1.03;;;;;;;;;;5098146;28;20247;-64
2022/06/07 10:25:11;;;;;;;0.87;0.87;;;;;;;;;;5091022;28;20229;-64
2022/06/07 10:27:42;;;;;;;1.00;1.00;;;;;;;;;;5097140;28;20256;-64
2022/06/07 10:30:17;;;;;;;1.27;1.10;;;;;;;;;;5097264;28;20766;-65
2022/06/07 10:33:01;;;;;;;0.90;0.90;;;;;;;;;;5078045;28;20260;-65
2022/06/07 10:35:39;;;;;;;1.80;1.20;;;;;;;;;;5095492;28;20283;-64
2022/06/07 10:38:12;;;;;;;0.80;0.80;;;;;;;;;;5098272;28;20209;-64
2022/06/07 10:40:43;;;;;;;2.30;0.90;;;;;;;;;;5097543;28;20231;-64
2022/06/07 10:43:20;;;;;;;0.90;0.80;;;;;;;;;;5095771;28;20207;-64
2022/06/07 10:45:50;;;;;;;1.43;0.73;;;;;;;;;;5086958;28;20225;-64
2022/06/07 10:48:21;;;;;;;3.20;0.73;;;;;;;;;;5091123;28;20212;-64
2022/06/07 10:50:51;;;;;;;1.20;0.90;;;;;;;;;;5097685;28;20224;-66
2022/06/07 10:53:22;;;;;;;1.03;0.77;;;;;;;;;;5097147;28;20706;-63
2022/06/07 10:55:52;;;;;;;1.40;0.70;;;;;;;;;;5097536;28;20228;-64
2022/06/07 10:58:31;;;;;;;1.03;0.80;;;;;;;;;;5097381;28;20208;-63
2022/06/07 11:01:04;;;;;;;1.23;0.77;;;;;;;;;;5097774;28;20595;-64
2022/06/07 11:03:39;;;;;;;1.13;0.80;;;;;;;;;;5085364;28;20236;-65
2022/06/07 11:11:45;;;;;;;1.10;1.10;;;;;;;;;;5093993;28;20632;-63
2022/06/07 11:14:31;;;;;;;0.73;0.73;;;;;;;;;;5097260;28;20211;-64
2022/06/07 11:17:03;;;;;;;0.70;0.70;;;;;;;;;;5092277;28;20221;-65
2022/06/07 11:19:31;;;;;;;0.83;0.83;;;;;;;;;;5085729;28;20656;-65
2022/06/07 11:22:02;;;;;;;1.07;0.73;;;;;;;;;;5081282;28;20219;-66
2022/06/07 11:24:31;;;;;;;1.80;0.83;;;;;;;;;;5093394;28;20246;-64
2022/06/07 11:27:18;;;;;;;2.23;1.40;;;;;;;;;;5096688;28;20658;-65
2022/06/07 11:29:46;;;;;;;1.83;0.97;;;;;;;;;;5096714;28;20263;-64
2022/06/07 11:32:34;;;;;;;1.63;0.70;;;;;;;;;;5096637;28;20293;-64
2022/06/07 11:35:17;;;;;;;0.80;0.73;;;;;;;;;;5097041;28;20206;-66
2022/06/07 11:37:57;;;;;;;1.40;0.90;;;;;;;;;;5095027;28;20225;-64
2022/06/07 11:40:29;;;;;;;0.60;0.60;;;;;;;;;;5091062;28;20580;-64
2022/06/07 11:42:59;;;;;;;3.07;1.10;;;;;;;;;;5089631;28;20257;-64
2022/06/07 11:45:27;;;;;;;1.10;0.77;;;;;;;;;;5096678;28;20258;-64
2022/06/07 11:48:04;;;;;;;1.10;1.10;;;;;;;;;;5090507;28;20229;-64
2022/06/07 11:50:40;;;;;;;0.80;0.80;;;;;;;;;;5083540;28;20224;-64
2022/06/07 11:53:23;;;;;;;0.77;0.77;;;;;;;;;;5084521;28;20246;-64
2022/06/07 11:55:57;;;;;;;1.07;0.97;;;;;;;;;;5080704;28;20549;-64
2022/06/07 11:58:41;;;;;;;1.33;1.00;;;;;;;;;;5083050;28;20207;-64
2022/06/07 12:01:23;;;;;;;4.00;1.00;;;;;;;;;;5096525;28;20214;-64
2022/06/07 12:04:06;;;;;;;0.93;0.90;;;;;;;;;;5089302;28;20208;-66
2022/06/07 12:06:35;;;;;;;1.10;0.67;;;;;;;;;;5094283;28;20312;-66
2022/06/07 12:09:06;;;;;;;1.53;0.87;;;;;;;;;;5094676;28;20262;-64
2022/06/07 12:11:41;;;;;;;0.97;0.93;;;;;;;;;;5081297;28;20544;-63
2022/06/07 12:14:20;;;;;;;1.50;0.90;;;;;;;;;;5099076;28;20256;-64
2022/06/07 12:16:53;;;;;;;2.00;0.70;;;;;;;;;;5081107;28;20286;-64
2022/06/07 12:19:22;;;;;;;1.60;1.00;;;;;;;;;;5085684;28;20250;-66
2022/06/07 12:25:18;;;;;;;2.37;0.97;;;;;;;;;;5093302;28;20183;-63
2022/06/07 12:27:48;;;;;;;1.63;1.03;;;;;;;;;;5086858;28;20266;-65
2022/06/07 12:30:21;;;;;;;1.37;1.07;;;;;;;;;;5086092;28;20237;-66
2022/06/07 12:32:50;;;;;;;1.23;0.97;;;;;;;;;;5088502;28;20269;-66
2022/06/07 12:35:20;;;;;;;0.80;0.80;;;;;;;;;;5100180;28;20238;-63
2022/06/07 12:37:51;;;;;;;2.33;0.90;;;;;;;;;;5099895;28;20336;-64
2022/06/07 12:40:35;;;;;;;0.93;0.90;;;;;;;;;;5099840;28;20230;-64
2022/06/07 12:43:04;;;;;;;0.70;0.70;;;;;;;;;;5099666;28;20275;-64
2022/06/07 12:45:34;;;;;;;2.27;1.10;;;;;;;;;;5099797;28;20258;-64
2022/06/07 12:48:07;;;;;;;3.20;0.90;;;;;;;;;;5096042;28;20597;-64
2022/06/07 12:50:37;;;;;;;4.87;1.00;;;;;;;;;;5099902;28;20324;-64
2022/06/07 12:53:06;;;;;;;3.07;0.80;;;;;;;;;;5093970;28;20241;-64
2022/06/07 12:55:37;;;;;;;1.10;0.93;;;;;;;;;;5092480;28;20254;-64
2022/06/07 12:58:06;;;;;;;0.80;0.80;;;;;;;;;;5099125;28;20592;-64
2022/06/07 13:00:41;;;;;;;0.93;0.80;;;;;;;;;;5099543;28;20197;-64
2022/06/07 13:03:19;;;;;;;1.80;1.10;;;;;;;;;;5099412;28;20737;-64
2022/06/07 13:05:51;;;;;;;1.80;0.90;;;;;;;;;;5099173;28;20208;-64
2022/06/07 13:08:22;;;;;;;0.63;0.63;;;;;;;;;;5099431;28;20235;-64
2022/06/07 13:10:52;;;;;;;2.90;0.90;;;;;;;;;;5095646;28;20335;-64
2022/06/07 13:13:24;;;;;;;2.37;0.90;;;;;;;;;;5088294;28;20238;-64
2022/06/07 13:16:01;;;;;;;3.73;1.07;;;;;;;;;;5085560;28;20201;-64
2022/06/07 13:18:31;;;;;;;0.93;0.93;;;;;;;;;;5099377;28;20217;-65
2022/06/07 13:21:15;;;;;;;1.27;0.83;;;;;;;;;;5087291;28;20206;-64
2022/06/07 13:23:44;;;;;;;2.20;1.20;;;;;;;;;;5082985;28;20203;-64
2022/06/07 13:26:21;;;;;;;1.90;0.83;;;;;;;;;;5096211;28;20251;-64
2022/06/07 13:29:00;;;;;;;2.37;1.07;;;;;;;;;;5098727;28;20260;-64
2022/06/07 13:31:31;;;;;;;1.50;0.97;;;;;;;;;;5095206;28;20635;-64
2022/06/07 13:34:00;;;;;;;1.00;0.90;;;;;;;;;;5086975;28;20290;-64
2022/06/07 13:36:34;;;;;;;1.83;0.90;;;;;;;;;;5089218;28;20258;-64
2022/06/07 13:39:03;;;;;;;0.93;0.80;;;;;;;;;;5088273;28;20210;-64
2022/06/07 13:41:47;;;;;;;3.47;1.13;;;;;;;;;;5098266;28;20206;-64
2022/06/07 13:44:28;;;;;;;3.83;1.03;;;;;;;;;;5086670;28;20211;-64
2022/06/07 13:46:57;;;;;;;3.73;0.80;;;;;;;;;;5079128;28;20227;-64
2022/06/07 13:55:15;;;;;;;1.47;0.77;;;;;;;;;;5090250;28;20216;-64
2022/06/07 13:57:44;;;;;;;2.73;1.30;;;;;;;;;;5081702;28;20292;-64
2022/06/07 14:00:14;;;;;;;1.30;0.80;;;;;;;;;;5098386;28;20230;-64
2022/06/07 14:02:44;;;;;;;1.23;0.60;;;;;;;;;;5094256;28;20219;-64
2022/06/07 14:05:14;;;;;;;2.00;0.80;;;;;;;;;;5089625;28;20202;-64
2022/06/07 14:07:42;;;;;;;4.63;1.03;;;;;;;;;;5084590;28;20231;-64
2022/06/07 14:10:14;;;;;;;4.13;0.80;;;;;;;;;;5098020;28;20273;-64
2022/06/07 14:12:42;;;;;;;1.77;1.10;;;;;;;;;;5098142;28;20207;-64
2022/06/07 14:15:12;;;;;;;0.83;0.80;;;;;;;;;;5084841;28;20212;-64
2022/06/07 14:17:42;;;;;;;2.10;1.47;;;;;;;;;;5097939;28;20708;-64
2022/06/07 14:20:14;;;;;;;1.90;1.20;;;;;;;;;;5097848;28;20200;-64
2022/06/07 14:22:44;;;;;;;1.63;0.77;;;;;;;;;;5097672;28;20695;-64
2022/06/07 14:25:16;;;;;;;1.90;0.80;;;;;;;;;;5094067;28;20666;-65
2022/06/07 14:27:44;;;;;;;1.17;0.93;;;;;;;;;;5096436;28;20273;-65
2022/06/07 14:30:14;;;;;;;2.23;1.47;;;;;;;;;;5098311;28;20236;-65
2022/06/07 14:32:43;;;;;;;3.77;1.13;;;;;;;;;;5097446;28;20240;-65
2022/06/07 14:35:16;;;;;;;2.37;1.00;;;;;;;;;;5097407;28;20203;-65
2022/06/07 14:37:44;;;;;;;1.50;1.30;;;;;;;;;;5097271;28;20259;-65
2022/06/07 14:40:16;;;;;;;0.97;0.90;;;;;;;;;;5097235;28;20255;-65
2022/06/07 14:42:45;;;;;;;2.47;1.00;;;;;;;;;;5097587;28;20269;-65
2022/06/07 14:45:15;;;;;;;3.40;1.43;;;;;;;;;;5097677;28;20269;-65
2022/06/07 14:47:44;;;;;;;2.47;1.00;;;;;;;;;;5091729;28;20228;-65
2022/06/07 14:50:16;;;;;;;1.33;1.07;;;;;;;;;;5092912;28;20230;-65
2022/06/07 14:52:44;;;;;;;1.60;0.90;;;;;;;;;;5096509;28;20211;-65
2022/06/07 14:55:13;;;;;;;1.77;0.50;;;;;;;;;;5096331;28;20277;-65
2022/06/07 14:57:43;;;;;;;1.47;1.10;;;;;;;;;;5097344;28;20250;-64
2022/06/07 15:00:13;;;;;;;1.20;1.07;;;;;;;;;;5094824;28;20273;-65
2022/06/07 15:02:44;;;;;;;2.20;1.13;;;;;;;;;;5095921;28;20200;-65
2022/06/07 15:05:16;;;;;;;1.27;1.13;;;;;;;;;;5096361;28;20215;-65
2022/06/07 15:07:47;;;;;;;3.63;1.20;;;;;;;;;;5096906;28;20262;-65
2022/06/07 15:10:16;;;;;;;3.23;1.47;;;;;;;;;;5097122;28;20579;-65
2022/06/07 15:12:44;;;;;;;3.80;1.30;;;;;;;;;;5093479;28;20270;-65
2022/06/07 15:15:11;;;;;;;2.03;1.20;;;;;;;;;;5095420;28;20247;-64
2022/06/07 15:17:42;;;;;;;1.07;0.90;;;;;;;;;;5093500;28;20235;-65
2022/06/07 15:20:18;;;;;;;3.17;1.17;;;;;;;;;;5097302;28;20200;-65
2022/06/07 15:22:46;;;;;;;0.90;0.80;;;;;;;;;;5081128;28;20251;-65
2022/06/07 15:25:15;;;;;;;1.97;1.33;;;;;;;;;;5078153;28;20264;-65
2022/06/07 15:27:44;;;;;;;1.17;1.07;;;;;;;;;;5076964;28;20646;-65
2022/06/07 15:30:12;;;;;;;4.17;0.93;;;;;;;;;;5077048;28;20644;-65
2022/06/07 15:32:40;;;;;;;1.63;0.90;;;;;;;;;;5089499;28;20674;-65
2022/06/07 15:35:10;;;;;;;0.73;0.70;;;;;;;;;;5087531;28;20330;-65
2022/06/07 15:37:42;;;;;;;2.10;0.87;;;;;;;;;;5097712;28;20223;-65
2022/06/07 15:40:12;;;;;;;2.40;1.10;;;;;;;;;;5089672;28;20239;-65
2022/06/07 15:42:51;;;;;;;2.40;1.00;;;;;;;;;;5087050;28;20272;-65
2022/06/07 15:45:21;;;;;;;2.67;1.47;;;;;;;;;;5100929;28;20259;-64
2022/06/07 15:47:58;;;;;;;3.20;1.07;;;;;;;;;;5094920;28;20865;-64